Flight Track Log - Related Links

Times and Time Zones

All times are in EDT time to prevent confusion due to time zone crossing. See the JBU51 flight status page for this flight to view local times or setup timezone preferences in your user account.

Time Position Orientation Groundspeed Altitude Reporting Facility
EDT Latitude Longitude Course Direction KTS MPH feet Rate Location/Type
Sat 11:26:56 AM 44.3778 -73.1489 196° South 200 230 4,600  Level Boston Center
Sat 11:27:56 AM 44.3069 -73.1797 197° South 247 284 8,000 3,350 Climbing Boston Center
Sat 11:28:00 AM 44.1312 -73.2758 195° South  Level FlightAware Approximate
Sat 11:28:56 AM 44.2294 -73.2108 196° South 279 321 11,300  Level Boston Center
Sat 11:29:00 AM 44.0467 -73.3067 194° South  Level FlightAware Approximate
Sat 11:30:00 AM 43.9618 -73.3350 193° South  Level FlightAware Approximate
Sat 11:30:08 AM 44.1397 -73.2472 196° South 324 373 13,000  Level Boston Center
Sat 11:31:00 AM 43.8774 -73.3658 196° South  Level FlightAware Approximate
Sat 11:31:08 AM 44.0081 -73.3003 196° South 380 437 16,500  Level Boston Center
Sat 11:32:00 AM 43.7935 -73.3995 196° South  Level FlightAware Approximate
Sat 11:32:08 AM 43.9225 -73.3364 197° South 390 449 18,000  Level Boston Center
Sat 11:33:08 AM 43.8136 -73.3808 196° South 405 466 20,300 2,150 Climbing Boston Center
Sat 11:34:08 AM 43.6944 -73.4308 197° South 431 496 22,300 2,000 Climbing Boston Center
Sat 11:35:08 AM 43.5481 -73.4856 195° South 452 520 24,300 1,850 Climbing Boston Center
Sat 11:36:08 AM 43.4225 -73.5350 196° South 464 534 26,000 1,650 Climbing Boston Center
Sat 11:37:08 AM 43.2969 -73.5869 197° South 474 545 27,600 1,000 Climbing Boston Center
Sat 11:38:08 AM 43.1653 -73.6383 196° South 484 557 28,000 200 Climbing Boston Center
Sat 11:39:08 AM 43.0375 -73.6900 196° South 484 557 28,000  Level Boston Center
Sat 11:40:08 AM 42.9100 -73.7383 196° South 484 557 28,000  Level Boston Center
Sat 11:41:08 AM 42.7967 -73.7869 197° South 476 548 28,000  Level Boston Center
Sat 11:42:08 AM 42.6653 -73.8094 187° South 476 548 28,000  Level Boston Center
Sat 11:43:08 AM 42.5192 -73.8119 181° South 476 548 28,000  Level Boston Center
Sat 11:44:08 AM 42.3858 -73.8175 182° South 482 555 28,000  Level Boston Center
Sat 11:45:08 AM 42.2525 -73.8172 180° South 482 555 28,000  Level Boston Center
Sat 11:46:08 AM 42.1169 -73.8200 181° South 477 549 28,000  Level Boston Center
Sat 11:47:08 AM 42.0103 -73.8456 190° South 482 555 28,000  Level Boston Center
Sat 11:48:08 AM 41.8553 -73.9006 195° South 482 555 28,000 -1,288 Level Boston Center
Sat 11:50:19 AM 41.6072 -73.9839 194° South 487 560 23,900 -2,190 Descending New York Center
Sat 11:51:17 AM 41.4622 -74.0350 195° South 464 534 21,100 -1,966 Descending New York Center
Sat 11:52:18 AM 41.3500 -74.0958 202° Southwest 453 521 20,000 -541 Descending New York Center
Sat 11:53:19 AM 41.2500 -74.1792 212° Southwest 437 503 20,000  Level New York Center
Sat 11:54:17 AM 41.1689 -74.2439 211° Southwest 416 479 20,000  Level New York Center
Sat 11:55:18 AM 41.0739 -74.2831 197° South 363 418 20,000 -365 Level New York Center
Sat 11:56:12 AM 40.9833 -74.2000 145° Southeast 346 398 19,300 -789 Descending New York TRACON
Sat 11:57:12 AM 40.9167 -74.1333 143° Southeast 329 379 18,500 -1,100 Descending New York TRACON
Sat 11:58:12 AM 40.8667 -74.0333 123° Southeast 313 360 17,100 -1,500 Descending New York TRACON
Sat 11:59:12 AM 40.8500 -73.9333 102° East 304 350 15,500 -1,684 Descending New York TRACON
Sat 12:00:06 PM 40.7833 -73.8667 143° Southeast 302 348 13,900 -1,316 Descending New York TRACON
Sat 12:01:06 PM 40.7167 -73.8167 150° Southeast 279 321 13,000 -950 Descending New York TRACON
Sat 12:02:06 PM 40.6500 -73.7667 150° Southeast 261 300 12,000 -1,900 Descending New York TRACON
Sat 12:03:06 PM 40.5667 -73.7333 163° South 260 299 9,200 -2,000 Descending New York TRACON
Sat 12:04:06 PM 40.4833 -73.7167 171° South 282 325 8,000 -950 Descending New York TRACON
Sat 12:05:06 PM 40.4167 -73.7500 201° Southwest 292 336 7,300 -1,250 Descending New York TRACON
Sat 12:06:06 PM 40.3333 -73.8000 205° Southwest 289 333 5,500 -1,250 Descending New York TRACON
Sat 12:07:06 PM 40.2833 -73.8500 217° Southwest 248 285 4,800 -750 Descending New York TRACON
Sat 12:08:06 PM 40.3000 -73.9333 285° West 236 272 4,000 -350 Descending New York TRACON
Sat 12:09:06 PM 40.3333 -74.0167 298° West 234 269 4,100  Climbing New York TRACON
Sat 12:10:00 PM 40.3833 -74.0500 333° Northwest 213 245 4,000 -50 Descending New York TRACON
Sat 12:11:06 PM 40.4333 -74.0333 14° North 169 194 4,000 -143 Level New York TRACON
Sat 12:12:06 PM 40.4667 -74.0000 37° Northeast 167 192 3,700 -400 Descending New York TRACON
Sat 12:13:06 PM 40.5167 -73.9833 14° North 162 186 3,200 -350 Descending New York TRACON
Sat 12:14:06 PM 40.5500 -73.9500 37° Northeast 162 186 3,000 -150 Descending New York TRACON
Sat 12:15:06 PM 40.5833 -73.9167 37° Northeast 149 171 2,900 -450 Descending New York TRACON
Sat 12:16:06 PM 40.6167 -73.8833 37° Northeast 153 176 2,100 -842 Descending New York TRACON
Sat 12:17:00 PM 40.6500 -73.8667 21° North 150 173 1,300 -789 Descending New York TRACON
Sat 12:18:00 PM 40.6667 -73.8167 66° East 132 152 600 -700 Descending New York TRACON

Login

Don't have an account? Register now (free) for customized features, flight alerts, and more!